KHLG

Wheeling Ohio Co Airport

Wheeling, West Virginia, USA
KHLG 201120Z 2012/2112 14010KT P6SM SCT070 FM201600 17010G18KT P6SM BKN060 FM202000 15010KT P6SM VCTS BKN050CB FM202200 14012KT P6SM VCSH BKN060
Issued Valid From Valid To
Jul-20 @ 11:20 UTC
(3 hours ago)
Jul-20 @ 12:00 UTC
(2 hours ago)
Jul-21 @ 12:00 UTC
(in 22 hours)
Jul-20 @ 12:00 to Jul-20 @ 16:00
KHLG 201120Z 2012/2112 14010KT P6SM SCT070
Wind Visibility Clouds
140° at 10 knots Greater than 6 miles
  • Scattered at 7,000' AGL
From Jul-20 @ 16:00 to Jul-20 @ 20:00
FM201600 17010G18KT P6SM BKN060
Wind Visibility Clouds
170° at 10 knots
 Gusting to 18 knots
Greater than 6 miles
  • Broken at 6,000' AGL
From Jul-20 @ 20:00 to Jul-20 @ 22:00
FM202000 15010KT P6SM VCTS BKN050CB
Wind Visibility Clouds Conditions
150° at 10 knots Greater than 6 miles
  • Broken at 5,000' AGL
  • Area Thunderstorm
From Jul-20 @ 22:00 to Jul-21 @ 12:00
FM202200 14012KT P6SM VCSH BKN060
Wind Visibility Clouds
140° at 12 knots Greater than 6 miles
  • Broken at 6,000' AGL
KHLG 201120Z 2012/2112 14010KT P6SM SCT070 FM201600 17010G18KT P6SM BKN060 FM202000 15010KT P6SM VCTS BKN050CB FM202200 14012KT P6SM VCSH BKN060
Issued Jul-20 @ 11:20 UTC
(3 hours ago)
Valid From Jul-20 @ 12:00 UTC
(2 hours ago)
Valid To Jul-21 @ 12:00 UTC
(in 22 hours)
Jul-20 @ 12:00 - Jul-20 @ 16:00
Wind Visibility
140° at 10 knots Greater than 6 miles
Clouds
  • Scattered at 7,000' AGL
From Jul-20 @ 16:00 - Jul-20 @ 20:00
Wind Visibility
170° at 10 knots
 Gusting to 18 knots
Greater than 6 miles
Clouds
  • Broken at 6,000' AGL
From Jul-20 @ 20:00 - Jul-20 @ 22:00
Wind Visibility
150° at 10 knots Greater than 6 miles
Clouds
  • Broken at 5,000' AGL
Conditions
  • Area Thunderstorm
From Jul-20 @ 22:00 - Jul-21 @ 12:00
Wind Visibility
140° at 12 knots Greater than 6 miles
Clouds
  • Broken at 6,000' AGL